sensor_id;sensor_type;location;lat;lon;timestamp;pressure;altitude;pressure_sealevel;temperature;humidity
76205;BME280;64986;55.672;37.628;2023-02-13T00:00:19;99770.41;;;-6.93;74.57
76205;BME280;64986;55.672;37.628;2023-02-13T00:02:45;99769.28;;;-6.89;74.65
76205;BME280;64986;55.672;37.628;2023-02-13T00:05:10;99766.59;;;-6.86;74.37
76205;BME280;64986;55.672;37.628;2023-02-13T00:07:36;99762.19;;;-6.84;74.12
76205;BME280;64986;55.672;37.628;2023-02-13T00:10:02;99764.94;;;-6.73;73.42
76205;BME280;64986;55.672;37.628;2023-02-13T00:12:27;99749.34;;;-6.68;73.43
76205;BME280;64986;55.672;37.628;2023-02-13T00:14:53;99749.16;;;-6.65;73.47
76205;BME280;64986;55.672;37.628;2023-02-13T00:17:18;99735.25;;;-6.61;73.96
76205;BME280;64986;55.672;37.628;2023-02-13T00:19:44;99739.59;;;-6.48;73.52
76205;BME280;64986;55.672;37.628;2023-02-13T00:22:09;99742.31;;;-6.51;73.25
76205;BME280;64986;55.672;37.628;2023-02-13T00:24:35;99732.06;;;-6.36;72.81
76205;BME280;64986;55.672;37.628;2023-02-13T00:27:00;99718.44;;;-6.37;73.51
76205;BME280;64986;55.672;37.628;2023-02-13T00:29:26;99726.06;;;-6.50;73.61
76205;BME280;64986;55.672;37.628;2023-02-13T00:31:51;99723.88;;;-6.41;74.32
76205;BME280;64986;55.672;37.628;2023-02-13T00:34:17;99715.63;;;-6.32;73.95
76205;BME280;64986;55.672;37.628;2023-02-13T00:36:42;99704.63;;;-6.20;72.78
76205;BME280;64986;55.672;37.628;2023-02-13T00:39:11;99709.03;;;-6.22;73.15
76205;BME280;64986;55.672;37.628;2023-02-13T00:41:37;99697.84;;;-6.21;73.53
76205;BME280;64986;55.672;37.628;2023-02-13T00:44:02;99694.00;;;-6.14;73.36
76205;BME280;64986;55.672;37.628;2023-02-13T00:46:28;99690.63;;;-6.15;72.75
76205;BME280;64986;55.672;37.628;2023-02-13T00:48:53;99692.59;;;-6.05;73.31
76205;BME280;64986;55.672;37.628;2023-02-13T00:51:19;99679.91;;;-6.07;72.67
76205;BME280;64986;55.672;37.628;2023-02-13T00:53:44;99676.06;;;-6.14;73.12
76205;BME280;64986;55.672;37.628;2023-02-13T00:56:10;99670.78;;;-6.11;73.38
76205;BME280;64986;55.672;37.628;2023-02-13T00:58:35;99672.94;;;-6.05;72.79
76205;BME280;64986;55.672;37.628;2023-02-13T01:01:01;99672.41;;;-6.10;73.66
76205;BME280;64986;55.672;37.628;2023-02-13T01:03:27;99670.22;;;-6.16;73.75
76205;BME280;64986;55.672;37.628;2023-02-13T01:05:55;99670.56;;;-6.08;74.08
76205;BME280;64986;55.672;37.628;2023-02-13T01:08:20;99673.22;;;-5.95;73.64
76205;BME280;64986;55.672;37.628;2023-02-13T01:10:47;99663.69;;;-5.93;73.14
76205;BME280;64986;55.672;37.628;2023-02-13T01:13:14;99661.03;;;-5.79;72.71
76205;BME280;64986;55.672;37.628;2023-02-13T01:15:40;99674.75;;;-5.93;73.00
76205;BME280;64986;55.672;37.628;2023-02-13T01:18:06;99669.94;;;-5.84;72.53
76205;BME280;64986;55.672;37.628;2023-02-13T01:20:32;99671.28;;;-5.79;72.56
76205;BME280;64986;55.672;37.628;2023-02-13T01:22:58;99665.63;;;-5.97;73.09
76205;BME280;64986;55.672;37.628;2023-02-13T01:25:24;99662.25;;;-5.84;73.14
76205;BME280;64986;55.672;37.628;2023-02-13T01:27:50;99664.75;;;-5.70;72.36
76205;BME280;64986;55.672;37.628;2023-02-13T01:30:16;99660.22;;;-5.79;72.85
76205;BME280;64986;55.672;37.628;2023-02-13T01:32:43;99648.84;;;-5.75;72.11
76205;BME280;64986;55.672;37.628;2023-02-13T01:35:10;99648.56;;;-5.71;72.45
76205;BME280;64986;55.672;37.628;2023-02-13T01:37:37;99630.56;;;-5.83;72.38
76205;BME280;64986;55.672;37.628;2023-02-13T01:40:05;99627.56;;;-5.90;73.11
76205;BME280;64986;55.672;37.628;2023-02-13T01:42:33;99628.59;;;-5.66;72.53
76205;BME280;64986;55.672;37.628;2023-02-13T01:45:19;99618.28;;;-5.78;72.78
76205;BME280;64986;55.672;37.628;2023-02-13T01:47:51;99616.22;;;-5.86;72.95
76205;BME280;64986;55.672;37.628;2023-02-13T01:53:17;99619.00;;;-5.76;72.33
76205;BME280;64986;55.672;37.628;2023-02-13T01:55:57;99600.47;;;-5.67;72.77
76205;BME280;64986;55.672;37.628;2023-02-13T01:58:30;99603.59;;;-5.89;72.93
76205;BME280;64986;55.672;37.628;2023-02-13T02:00:57;99595.59;;;-5.84;72.40
76205;BME280;64986;55.672;37.628;2023-02-13T02:03:33;99586.91;;;-5.69;72.37
76205;BME280;64986;55.672;37.628;2023-02-13T02:05:59;99575.81;;;-5.82;72.90
76205;BME280;64986;55.672;37.628;2023-02-13T02:08:27;99573.56;;;-5.87;72.38
76205;BME280;64986;55.672;37.628;2023-02-13T02:10:54;99579.81;;;-6.04;73.23
76205;BME280;64986;55.672;37.628;2023-02-13T02:13:21;99567.81;;;-6.03;72.49
76205;BME280;64986;55.672;37.628;2023-02-13T02:15:48;99562.69;;;-6.03;72.50
76205;BME280;64986;55.672;37.628;2023-02-13T02:18:23;99569.13;;;-5.98;72.79
76205;BME280;64986;55.672;37.628;2023-02-13T02:26:42;99566.47;;;-5.83;72.75
76205;BME280;64986;55.672;37.628;2023-02-13T02:29:32;99556.34;;;-5.85;72.73
76205;BME280;64986;55.672;37.628;2023-02-13T02:35:02;99562.50;;;-5.88;72.17
76205;BME280;64986;55.672;37.628;2023-02-13T02:37:45;99543.81;;;-5.90;72.33
76205;BME280;64986;55.672;37.628;2023-02-13T02:40:28;99549.69;;;-5.75;72.00
76205;BME280;64986;55.672;37.628;2023-02-13T02:46:03;99534.50;;;-5.91;72.15
76205;BME280;64986;55.672;37.628;2023-02-13T02:51:46;99527.31;;;-5.86;72.44
76205;BME280;64986;55.672;37.628;2023-02-13T02:54:21;99530.53;;;-5.69;72.05
76205;BME280;64986;55.672;37.628;2023-02-13T02:57:15;99510.22;;;-5.72;71.85
76205;BME280;64986;55.672;37.628;2023-02-13T02:59:44;99514.50;;;-5.86;72.54
76205;BME280;64986;55.672;37.628;2023-02-13T03:02:29;99511.72;;;-5.82;72.56
76205;BME280;64986;55.672;37.628;2023-02-13T03:05:24;99512.47;;;-5.68;72.67
76205;BME280;64986;55.672;37.628;2023-02-13T03:08:12;99493.59;;;-5.79;73.39
76205;BME280;64986;55.672;37.628;2023-02-13T03:10:38;99510.00;;;-5.69;72.75
76205;BME280;64986;55.672;37.628;2023-02-13T03:16:03;99508.28;;;-5.69;72.89
76205;BME280;64986;55.672;37.628;2023-02-13T03:18:52;99484.38;;;-5.56;72.58
76205;BME280;64986;55.672;37.628;2023-02-13T03:21:47;99498.53;;;-5.38;71.60
76205;BME280;64986;55.672;37.628;2023-02-13T03:27:37;99497.31;;;-5.58;72.47
76205;BME280;64986;55.672;37.628;2023-02-13T03:41:17;99460.56;;;-5.46;72.99
76205;BME280;64986;55.672;37.628;2023-02-13T03:44:08;99457.63;;;-5.65;74.92
76205;BME280;64986;55.672;37.628;2023-02-13T03:46:40;99438.53;;;-5.61;75.23
76205;BME280;64986;55.672;37.628;2023-02-13T03:49:10;99432.47;;;-5.60;74.80
76205;BME280;64986;55.672;37.628;2023-02-13T03:54:48;99427.66;;;-5.52;75.92
76205;BME280;64986;55.672;37.628;2023-02-13T03:57:36;99435.78;;;-5.58;76.49
76205;BME280;64986;55.672;37.628;2023-02-13T04:00:22;99435.31;;;-5.26;74.44
76205;BME280;64986;55.672;37.628;2023-02-13T04:03:15;99427.50;;;-5.12;73.95
76205;BME280;64986;55.672;37.628;2023-02-13T04:05:46;99420.06;;;-5.41;75.38
76205;BME280;64986;55.672;37.628;2023-02-13T04:08:13;99420.25;;;-5.31;74.91
76205;BME280;64986;55.672;37.628;2023-02-13T04:10:52;99427.63;;;-5.26;75.40
76205;BME280;64986;55.672;37.628;2023-02-13T04:13:27;99432.44;;;-5.22;75.37
76205;BME280;64986;55.672;37.628;2023-02-13T04:16:02;99417.75;;;-4.83;74.18
76205;BME280;64986;55.672;37.628;2023-02-13T04:18:32;99416.81;;;-5.06;74.38
76205;BME280;64986;55.672;37.628;2023-02-13T04:21:03;99403.97;;;-5.06;74.78
76205;BME280;64986;55.672;37.628;2023-02-13T04:23:29;99404.66;;;-5.28;76.00
76205;BME280;64986;55.672;37.628;2023-02-13T04:25:55;99405.50;;;-5.04;75.32
76205;BME280;64986;55.672;37.628;2023-02-13T04:28:22;99405.09;;;-5.10;74.61
76205;BME280;64986;55.672;37.628;2023-02-13T04:30:48;99399.47;;;-5.15;76.02
76205;BME280;64986;55.672;37.628;2023-02-13T04:33:15;99390.66;;;-5.24;76.61
76205;BME280;64986;55.672;37.628;2023-02-13T04:35:40;99386.25;;;-5.22;76.85
76205;BME280;64986;55.672;37.628;2023-02-13T04:38:06;99368.22;;;-4.96;76.09
76205;BME280;64986;55.672;37.628;2023-02-13T04:40:31;99375.75;;;-5.06;76.14
76205;BME280;64986;55.672;37.628;2023-02-13T04:42:57;99371.09;;;-5.01;75.44
76205;BME280;64986;55.672;37.628;2023-02-13T04:45:23;99375.16;;;-5.22;76.74
76205;BME280;64986;55.672;37.628;2023-02-13T04:47:52;99368.47;;;-5.12;76.86
76205;BME280;64986;55.672;37.628;2023-02-13T04:50:19;99384.84;;;-5.26;77.48
76205;BME280;64986;55.672;37.628;2023-02-13T04:52:45;99356.50;;;-5.24;77.80
76205;BME280;64986;55.672;37.628;2023-02-13T04:55:11;99351.25;;;-5.23;78.17
76205;BME280;64986;55.672;37.628;2023-02-13T04:57:36;99363.50;;;-5.26;78.49
76205;BME280;64986;55.672;37.628;2023-02-13T05:00:03;99351.44;;;-5.13;77.26
76205;BME280;64986;55.672;37.628;2023-02-13T05:02:30;99344.03;;;-5.05;77.45
76205;BME280;64986;55.672;37.628;2023-02-13T05:04:56;99343.94;;;-5.16;77.01
76205;BME280;64986;55.672;37.628;2023-02-13T05:07:21;99325.94;;;-5.04;76.95
76205;BME280;64986;55.672;37.628;2023-02-13T05:09:47;99328.94;;;-5.10;76.59
76205;BME280;64986;55.672;37.628;2023-02-13T05:12:12;99332.75;;;-4.91;76.17
76205;BME280;64986;55.672;37.628;2023-02-13T05:14:38;99311.25;;;-5.02;76.04
76205;BME280;64986;55.672;37.628;2023-02-13T05:17:03;99301.69;;;-4.99;76.63
76205;BME280;64986;55.672;37.628;2023-02-13T05:19:29;99311.53;;;-5.17;76.76
76205;BME280;64986;55.672;37.628;2023-02-13T05:21:54;99311.75;;;-5.20;77.39
76205;BME280;64986;55.672;37.628;2023-02-13T05:24:38;99302.50;;;-4.99;76.76
76205;BME280;64986;55.672;37.628;2023-02-13T05:27:04;99308.94;;;-4.93;76.51
76205;BME280;64986;55.672;37.628;2023-02-13T05:29:29;99322.69;;;-5.06;77.13
76205;BME280;64986;55.672;37.628;2023-02-13T05:31:56;99316.75;;;-4.95;76.61
76205;BME280;64986;55.672;37.628;2023-02-13T05:34:24;99304.44;;;-4.90;76.66
76205;BME280;64986;55.672;37.628;2023-02-13T05:36:50;99334.50;;;-4.92;77.42
76205;BME280;64986;55.672;37.628;2023-02-13T05:39:15;99300.69;;;-4.86;76.83
76205;BME280;64986;55.672;37.628;2023-02-13T05:41:42;99296.22;;;-4.95;77.10
76205;BME280;64986;55.672;37.628;2023-02-13T05:44:08;99295.13;;;-4.80;76.53
76205;BME280;64986;55.672;37.628;2023-02-13T05:46:34;99292.13;;;-4.62;76.34
76205;BME280;64986;55.672;37.628;2023-02-13T05:49:00;99290.47;;;-4.63;76.07
76205;BME280;64986;55.672;37.628;2023-02-13T05:51:26;99298.31;;;-4.54;75.92
76205;BME280;64986;55.672;37.628;2023-02-13T05:53:51;99305.69;;;-4.49;75.68
76205;BME280;64986;55.672;37.628;2023-02-13T05:56:17;99310.34;;;-4.54;75.46
76205;BME280;64986;55.672;37.628;2023-02-13T05:58:42;99295.88;;;-4.55;75.96
76205;BME280;64986;55.672;37.628;2023-02-13T06:01:09;99303.38;;;-4.41;75.61
76205;BME280;64986;55.672;37.628;2023-02-13T06:03:35;99300.69;;;-4.51;76.33
76205;BME280;64986;55.672;37.628;2023-02-13T06:06:00;99290.53;;;-4.41;75.42
76205;BME280;64986;55.672;37.628;2023-02-13T06:08:26;99310.50;;;-4.33;76.16
76205;BME280;64986;55.672;37.628;2023-02-13T06:10:52;99313.44;;;-4.27;75.57
76205;BME280;64986;55.672;37.628;2023-02-13T06:13:18;99303.50;;;-4.42;75.89
76205;BME280;64986;55.672;37.628;2023-02-13T06:15:44;99294.03;;;-4.42;75.83
76205;BME280;64986;55.672;37.628;2023-02-13T06:18:10;99292.31;;;-4.30;76.05
76205;BME280;64986;55.672;37.628;2023-02-13T06:20:36;99298.72;;;-4.02;75.42
76205;BME280;64986;55.672;37.628;2023-02-13T06:23:02;99310.03;;;-4.38;75.55
76205;BME280;64986;55.672;37.628;2023-02-13T06:25:28;99303.19;;;-4.04;74.90
76205;BME280;64986;55.672;37.628;2023-02-13T06:27:53;99297.78;;;-4.24;75.49
76205;BME280;64986;55.672;37.628;2023-02-13T06:30:19;99290.78;;;-4.10;75.03
76205;BME280;64986;55.672;37.628;2023-02-13T06:32:45;99303.44;;;-4.07;75.10
76205;BME280;64986;55.672;37.628;2023-02-13T06:35:11;99289.84;;;-3.76;73.80
76205;BME280;64986;55.672;37.628;2023-02-13T06:37:37;99290.34;;;-4.04;74.67
76205;BME280;64986;55.672;37.628;2023-02-13T06:40:05;99275.00;;;-3.61;73.98
76205;BME280;64986;55.672;37.628;2023-02-13T06:42:31;99291.47;;;-3.64;73.28
76205;BME280;64986;55.672;37.628;2023-02-13T06:44:56;99266.34;;;-3.71;73.84
76205;BME280;64986;55.672;37.628;2023-02-13T06:47:22;99253.50;;;-3.82;73.78
76205;BME280;64986;55.672;37.628;2023-02-13T06:49:47;99269.38;;;-3.66;73.69
76205;BME280;64986;55.672;37.628;2023-02-13T06:52:13;99252.66;;;-3.72;73.37
76205;BME280;64986;55.672;37.628;2023-02-13T06:54:38;99270.53;;;-3.59;73.35
76205;BME280;64986;55.672;37.628;2023-02-13T06:57:04;99264.31;;;-3.45;72.66
76205;BME280;64986;55.672;37.628;2023-02-13T06:59:29;99266.25;;;-3.70;73.16
76205;BME280;64986;55.672;37.628;2023-02-13T07:01:55;99257.19;;;-3.53;73.05
76205;BME280;64986;55.672;37.628;2023-02-13T07:04:20;99250.91;;;-3.71;73.85
76205;BME280;64986;55.672;37.628;2023-02-13T07:06:46;99246.69;;;-3.72;74.07
76205;BME280;64986;55.672;37.628;2023-02-13T07:09:11;99237.97;;;-3.81;74.16
76205;BME280;64986;55.672;37.628;2023-02-13T07:11:38;99242.44;;;-3.40;73.57
76205;BME280;64986;55.672;37.628;2023-02-13T07:14:06;99235.69;;;-3.63;73.70
76205;BME280;64986;55.672;37.628;2023-02-13T07:16:32;99227.69;;;-3.38;73.53
76205;BME280;64986;55.672;37.628;2023-02-13T07:18:58;99223.69;;;-3.42;73.03
76205;BME280;64986;55.672;37.628;2023-02-13T07:21:23;99236.13;;;-3.47;73.62
76205;BME280;64986;55.672;37.628;2023-02-13T07:23:50;99212.09;;;-3.36;73.18
76205;BME280;64986;55.672;37.628;2023-02-13T07:26:15;99225.25;;;-3.18;72.86
76205;BME280;64986;55.672;37.628;2023-02-13T07:28:41;99221.44;;;-3.24;73.47
76205;BME280;64986;55.672;37.628;2023-02-13T07:31:07;99220.00;;;-2.96;72.50
76205;BME280;64986;55.672;37.628;2023-02-13T07:33:33;99205.56;;;-3.08;73.47
76205;BME280;64986;55.672;37.628;2023-02-13T07:35:59;99206.88;;;-3.14;73.52
76205;BME280;64986;55.672;37.628;2023-02-13T07:38:28;99209.44;;;-2.72;73.04
76205;BME280;64986;55.672;37.628;2023-02-13T07:40:57;99203.84;;;-2.77;73.19
76205;BME280;64986;55.672;37.628;2023-02-13T07:43:23;99197.94;;;-2.89;73.29
76205;BME280;64986;55.672;37.628;2023-02-13T07:45:49;99197.88;;;-2.77;73.05
76205;BME280;64986;55.672;37.628;2023-02-13T07:48:14;99209.72;;;-2.65;72.30
76205;BME280;64986;55.672;37.628;2023-02-13T07:50:41;99189.66;;;-2.92;73.08
76205;BME280;64986;55.672;37.628;2023-02-13T07:53:06;99204.94;;;-2.80;73.33
76205;BME280;64986;55.672;37.628;2023-02-13T07:55:32;99176.13;;;-2.94;73.53
76205;BME280;64986;55.672;37.628;2023-02-13T07:57:59;99196.09;;;-2.87;73.71
76205;BME280;64986;55.672;37.628;2023-02-13T08:00:25;99195.81;;;-2.63;73.31
76205;BME280;64986;55.672;37.628;2023-02-13T08:02:51;99190.88;;;-2.66;73.20
76205;BME280;64986;55.672;37.628;2023-02-13T08:05:16;99197.22;;;-2.80;73.60
76205;BME280;64986;55.672;37.628;2023-02-13T08:07:42;99202.13;;;-2.67;73.62
76205;BME280;64986;55.672;37.628;2023-02-13T08:10:08;99196.38;;;-2.49;72.80
76205;BME280;64986;55.672;37.628;2023-02-13T08:12:54;99200.44;;;-2.57;72.99
76205;BME280;64986;55.672;37.628;2023-02-13T08:15:19;99183.16;;;-2.35;72.23
76205;BME280;64986;55.672;37.628;2023-02-13T08:17:45;99192.63;;;-2.45;72.82
76205;BME280;64986;55.672;37.628;2023-02-13T08:20:10;99185.81;;;-2.56;73.01
76205;BME280;64986;55.672;37.628;2023-02-13T08:22:36;99172.44;;;-2.71;74.65
76205;BME280;64986;55.672;37.628;2023-02-13T08:25:03;99162.72;;;-2.58;74.93
76205;BME280;64986;55.672;37.628;2023-02-13T08:27:29;99163.19;;;-2.43;74.70
76205;BME280;64986;55.672;37.628;2023-02-13T08:29:56;99143.16;;;-2.30;73.80
76205;BME280;64986;55.672;37.628;2023-02-13T08:32:22;99148.44;;;-2.41;74.35
76205;BME280;64986;55.672;37.628;2023-02-13T08:34:48;99140.72;;;-2.31;73.92
76205;BME280;64986;55.672;37.628;2023-02-13T08:37:13;99133.66;;;-2.39;73.97
76205;BME280;64986;55.672;37.628;2023-02-13T08:39:39;99119.38;;;-2.43;73.37
76205;BME280;64986;55.672;37.628;2023-02-13T08:42:04;99134.75;;;-2.32;74.43
76205;BME280;64986;55.672;37.628;2023-02-13T08:44:30;99132.03;;;-2.30;75.04
76205;BME280;64986;55.672;37.628;2023-02-13T08:46:56;99136.69;;;-2.14;74.27
76205;BME280;64986;55.672;37.628;2023-02-13T08:49:21;99133.03;;;-2.12;73.72
76205;BME280;64986;55.672;37.628;2023-02-13T08:51:51;99136.00;;;-2.26;74.24
76205;BME280;64986;55.672;37.628;2023-02-13T08:54:16;99126.22;;;-2.13;74.34
76205;BME280;64986;55.672;37.628;2023-02-13T08:56:42;99125.69;;;-2.16;74.02
76205;BME280;64986;55.672;37.628;2023-02-13T08:59:07;99108.31;;;-2.24;74.60
76205;BME280;64986;55.672;37.628;2023-02-13T09:01:33;99130.63;;;-2.04;74.35
76205;BME280;64986;55.672;37.628;2023-02-13T09:03:59;99105.66;;;-1.93;73.65
76205;BME280;64986;55.672;37.628;2023-02-13T09:06:26;99108.75;;;-1.90;74.21
76205;BME280;64986;55.672;37.628;2023-02-13T09:08:52;99108.38;;;-1.76;73.93
76205;BME280;64986;55.672;37.628;2023-02-13T09:11:18;99117.03;;;-1.67;73.79
76205;BME280;64986;55.672;37.628;2023-02-13T09:13:47;99108.63;;;-1.69;73.69
76205;BME280;64986;55.672;37.628;2023-02-13T09:16:12;99106.59;;;-1.85;74.21
76205;BME280;64986;55.672;37.628;2023-02-13T09:18:38;99106.47;;;-1.74;74.44
76205;BME280;64986;55.672;37.628;2023-02-13T09:21:09;99095.03;;;-1.52;73.87
76205;BME280;64986;55.672;37.628;2023-02-13T09:23:37;99107.53;;;-1.37;73.29
76205;BME280;64986;55.672;37.628;2023-02-13T09:26:06;99096.94;;;-1.34;73.20
76205;BME280;64986;55.672;37.628;2023-02-13T09:28:34;99094.50;;;-1.46;73.23
76205;BME280;64986;55.672;37.628;2023-02-13T09:31:07;99078.06;;;-1.54;73.89
76205;BME280;64986;55.672;37.628;2023-02-13T09:33:33;99082.94;;;-1.51;75.03
76205;BME280;64986;55.672;37.628;2023-02-13T09:36:05;99079.97;;;-1.47;75.19
76205;BME280;64986;55.672;37.628;2023-02-13T09:38:31;99066.44;;;-1.21;74.00
76205;BME280;64986;55.672;37.628;2023-02-13T09:41:01;99054.66;;;-1.24;74.67
76205;BME280;64986;55.672;37.628;2023-02-13T09:46:39;99054.34;;;-1.11;74.50
76205;BME280;64986;55.672;37.628;2023-02-13T09:49:15;99048.47;;;-1.03;75.23
76205;BME280;64986;55.672;37.628;2023-02-13T09:51:44;99044.44;;;-1.16;75.57
76205;BME280;64986;55.672;37.628;2023-02-13T09:54:14;99025.31;;;-0.95;74.84
76205;BME280;64986;55.672;37.628;2023-02-13T09:57:07;99029.00;;;-0.70;74.97
76205;BME280;64986;55.672;37.628;2023-02-13T10:15:36;99013.63;;;-0.44;74.91
76205;BME280;64986;55.672;37.628;2023-02-13T10:18:13;99003.00;;;-0.69;75.20
76205;BME280;64986;55.672;37.628;2023-02-13T10:20:42;99006.38;;;-0.41;74.67
76205;BME280;64986;55.672;37.628;2023-02-13T10:23:32;99016.97;;;-0.62;74.76
76205;BME280;64986;55.672;37.628;2023-02-13T10:26:03;99019.44;;;-0.60;74.54
76205;BME280;64986;55.672;37.628;2023-02-13T10:28:34;99015.50;;;-0.64;74.86
76205;BME280;64986;55.672;37.628;2023-02-13T10:31:14;99013.06;;;-0.93;75.75
76205;BME280;64986;55.672;37.628;2023-02-13T10:33:59;99004.41;;;-1.02;76.34
76205;BME280;64986;55.672;37.628;2023-02-13T10:36:29;99012.00;;;-0.91;75.46
76205;BME280;64986;55.672;37.628;2023-02-13T10:38:56;98998.56;;;-0.76;75.39
76205;BME280;64986;55.672;37.628;2023-02-13T10:41:53;99007.59;;;-0.80;76.78
76205;BME280;64986;55.672;37.628;2023-02-13T11:03:04;98954.09;;;-0.52;75.43
76205;BME280;64986;55.672;37.628;2023-02-13T11:05:38;98955.22;;;-0.37;75.65
76205;BME280;64986;55.672;37.628;2023-02-13T11:10:43;98925.97;;;-0.38;75.33
76205;BME280;64986;55.672;37.628;2023-02-13T11:13:21;98930.28;;;-0.38;75.70
76205;BME280;64986;55.672;37.628;2023-02-13T11:16:07;98930.91;;;-0.44;76.62
76205;BME280;64986;55.672;37.628;2023-02-13T11:18:39;98931.19;;;-0.47;76.12
76205;BME280;64986;55.672;37.628;2023-02-13T11:21:21;98918.47;;;-0.41;76.50
76205;BME280;64986;55.672;37.628;2023-02-13T11:23:52;98919.66;;;-0.35;76.67
76205;BME280;64986;55.672;37.628;2023-02-13T11:28:55;98932.22;;;-0.22;76.09
76205;BME280;64986;55.672;37.628;2023-02-13T11:33:47;98930.22;;;0.15;75.64
76205;BME280;64986;55.672;37.628;2023-02-13T11:36:15;98925.19;;;0.40;74.58
76205;BME280;64986;55.672;37.628;2023-02-13T11:38:40;98929.47;;;0.23;74.49
76205;BME280;64986;55.672;37.628;2023-02-13T11:43:36;98907.84;;;0.32;74.38
76205;BME280;64986;55.672;37.628;2023-02-13T11:46:17;98908.44;;;0.26;74.64
76205;BME280;64986;55.672;37.628;2023-02-13T11:49:04;98904.69;;;0.20;74.70
76205;BME280;64986;55.672;37.628;2023-02-13T11:56:50;98886.13;;;0.25;74.80
76205;BME280;64986;55.672;37.628;2023-02-13T11:59:16;98878.72;;;0.04;75.54
76205;BME280;64986;55.672;37.628;2023-02-13T12:01:42;98870.09;;;-0.05;75.45
76205;BME280;64986;55.672;37.628;2023-02-13T12:04:17;98865.56;;;-0.03;75.52
76205;BME280;64986;55.672;37.628;2023-02-13T12:07:28;98878.16;;;0.18;75.51
76205;BME280;64986;55.672;37.628;2023-02-13T12:12:54;98874.41;;;0.39;74.91
76205;BME280;64986;55.672;37.628;2023-02-13T12:15:23;98861.88;;;0.68;74.50
76205;BME280;64986;55.672;37.628;2023-02-13T12:18:02;98853.19;;;0.86;74.00
76205;BME280;64986;55.672;37.628;2023-02-13T12:20:35;98841.97;;;0.69;74.25
76205;BME280;64986;55.672;37.628;2023-02-13T12:29:47;98851.59;;;0.50;74.93
76205;BME280;64986;55.672;37.628;2023-02-13T12:37:37;98851.53;;;0.68;74.33
76205;BME280;64986;55.672;37.628;2023-02-13T12:45:15;98833.25;;;0.36;74.87
76205;BME280;64986;55.672;37.628;2023-02-13T12:48:37;98850.75;;;0.34;75.29
76205;BME280;64986;55.672;37.628;2023-02-13T12:54:06;98838.38;;;0.53;74.46
76205;BME280;64986;55.672;37.628;2023-02-13T12:56:46;98834.00;;;0.54;73.73
76205;BME280;64986;55.672;37.628;2023-02-13T12:59:38;98835.00;;;0.61;73.96
76205;BME280;64986;55.672;37.628;2023-02-13T13:05:15;98823.97;;;0.67;74.01
76205;BME280;64986;55.672;37.628;2023-02-13T13:07:53;98815.94;;;0.36;74.76
76205;BME280;64986;55.672;37.628;2023-02-13T13:10:39;98811.66;;;0.53;74.14
76205;BME280;64986;55.672;37.628;2023-02-13T13:13:40;98812.22;;;0.31;75.10
76205;BME280;64986;55.672;37.628;2023-02-13T13:21:38;98808.03;;;0.38;75.54
76205;BME280;64986;55.672;37.628;2023-02-13T13:27:02;98795.44;;;0.43;75.08
76205;BME280;64986;55.672;37.628;2023-02-13T13:29:41;98806.41;;;0.37;75.39
76205;BME280;64986;55.672;37.628;2023-02-13T13:32:15;98799.97;;;0.41;75.34
76205;BME280;64986;55.672;37.628;2023-02-13T13:34:42;98808.09;;;0.54;74.85
76205;BME280;64986;55.672;37.628;2023-02-13T13:45:19;98800.34;;;0.54;74.90
76205;BME280;64986;55.672;37.628;2023-02-13T13:50:39;98791.06;;;0.43;75.30
76205;BME280;64986;55.672;37.628;2023-02-13T13:53:09;98793.34;;;0.38;75.50
76205;BME280;64986;55.672;37.628;2023-02-13T14:03:48;98764.47;;;0.17;76.86
76205;BME280;64986;55.672;37.628;2023-02-13T14:06:19;98777.50;;;0.07;77.52
76205;BME280;64986;55.672;37.628;2023-02-13T14:08:55;98769.06;;;-0.03;78.21
76205;BME280;64986;55.672;37.628;2023-02-13T14:13:52;98778.72;;;-0.13;79.11
76205;BME280;64986;55.672;37.628;2023-02-13T14:16:41;98769.47;;;-0.16;79.76
76205;BME280;64986;55.672;37.628;2023-02-13T14:19:55;98770.44;;;-0.17;80.06
76205;BME280;64986;55.672;37.628;2023-02-13T14:25:05;98762.78;;;-0.26;80.96
76205;BME280;64986;55.672;37.628;2023-02-13T14:27:36;98747.13;;;-0.25;80.22
76205;BME280;64986;55.672;37.628;2023-02-13T14:30:04;98736.66;;;-0.15;79.47
76205;BME280;64986;55.672;37.628;2023-02-13T14:32:32;98725.63;;;-0.25;80.68
76205;BME280;64986;55.672;37.628;2023-02-13T14:35:01;98739.59;;;-0.10;79.67
76205;BME280;64986;55.672;37.628;2023-02-13T14:37:34;98744.47;;;-0.07;79.38
76205;BME280;64986;55.672;37.628;2023-02-13T14:42:41;98734.25;;;-0.09;79.83
76205;BME280;64986;55.672;37.628;2023-02-13T14:45:16;98739.63;;;-0.02;79.17
76205;BME280;64986;55.672;37.628;2023-02-13T14:47:46;98734.47;;;0.06;78.52
76205;BME280;64986;55.672;37.628;2023-02-13T14:50:25;98726.88;;;0.05;78.58
76205;BME280;64986;55.672;37.628;2023-02-13T14:52:53;98722.31;;;-0.02;79.46
76205;BME280;64986;55.672;37.628;2023-02-13T14:55:35;98722.53;;;0.13;78.70
76205;BME280;64986;55.672;37.628;2023-02-13T15:03:12;98709.75;;;0.12;79.41
76205;BME280;64986;55.672;37.628;2023-02-13T15:05:49;98707.47;;;0.01;79.83
76205;BME280;64986;55.672;37.628;2023-02-13T15:08:20;98696.28;;;-0.08;80.60
76205;BME280;64986;55.672;37.628;2023-02-13T15:10:52;98690.63;;;-0.04;80.15
76205;BME280;64986;55.672;37.628;2023-02-13T15:13:30;98684.47;;;-0.11;80.80
76205;BME280;64986;55.672;37.628;2023-02-13T15:16:09;98681.44;;;0.02;80.26
76205;BME280;64986;55.672;37.628;2023-02-13T15:18:47;98665.09;;;-0.07;80.98
76205;BME280;64986;55.672;37.628;2023-02-13T15:21:16;98654.56;;;-0.13;80.81
76205;BME280;64986;55.672;37.628;2023-02-13T15:23:43;98653.63;;;0.04;79.88
76205;BME280;64986;55.672;37.628;2023-02-13T15:26:19;98639.34;;;-0.08;80.50
76205;BME280;64986;55.672;37.628;2023-02-13T15:28:59;98649.38;;;-0.13;81.36
76205;BME280;64986;55.672;37.628;2023-02-13T15:31:29;98656.81;;;-0.18;81.06
76205;BME280;64986;55.672;37.628;2023-02-13T15:33:55;98639.22;;;-0.15;80.94
76205;BME280;64986;55.672;37.628;2023-02-13T15:36:24;98634.16;;;-0.16;81.04
76205;BME280;64986;55.672;37.628;2023-02-13T15:39:01;98638.84;;;-0.20;81.35
76205;BME280;64986;55.672;37.628;2023-02-13T15:41:37;98630.25;;;-0.37;81.64
76205;BME280;64986;55.672;37.628;2023-02-13T15:44:04;98629.13;;;-0.26;82.46